sensor_id;sensor_type;location;lat;lon;timestamp;P1;durP1;ratioP1;P2;durP2;ratioP2
61483;SDS011;47349;55.640;37.692;2023-10-08T00:02:17;1.70;;;1.60;;
61483;SDS011;47349;55.640;37.692;2023-10-08T00:04:49;1.67;;;1.58;;
61483;SDS011;47349;55.640;37.692;2023-10-08T00:07:19;1.60;;;1.50;;
61483;SDS011;47349;55.640;37.692;2023-10-08T00:09:51;1.73;;;1.50;;
61483;SDS011;47349;55.640;37.692;2023-10-08T00:12:19;1.55;;;1.50;;
61483;SDS011;47349;55.640;37.692;2023-10-08T00:14:47;1.80;;;1.70;;
61483;SDS011;47349;55.640;37.692;2023-10-08T00:17:20;1.70;;;1.60;;
61483;SDS011;47349;55.640;37.692;2023-10-08T00:19:48;1.60;;;1.50;;
61483;SDS011;47349;55.640;37.692;2023-10-08T00:22:19;1.67;;;1.50;;
61483;SDS011;47349;55.640;37.692;2023-10-08T00:24:47;2.10;;;1.42;;
61483;SDS011;47349;55.640;37.692;2023-10-08T00:27:22;1.92;;;1.77;;
61483;SDS011;47349;55.640;37.692;2023-10-08T00:29:50;1.30;;;1.30;;
61483;SDS011;47349;55.640;37.692;2023-10-08T00:32:17;2.10;;;1.65;;
61483;SDS011;47349;55.640;37.692;2023-10-08T00:34:46;1.55;;;1.45;;
61483;SDS011;47349;55.640;37.692;2023-10-08T00:37:14;2.45;;;1.40;;
61483;SDS011;47349;55.640;37.692;2023-10-08T00:39:41;1.70;;;1.60;;
61483;SDS011;47349;55.640;37.692;2023-10-08T00:42:09;1.50;;;1.40;;
61483;SDS011;47349;55.640;37.692;2023-10-08T00:44:36;1.58;;;1.48;;
61483;SDS011;47349;55.640;37.692;2023-10-08T00:47:18;1.60;;;1.50;;
61483;SDS011;47349;55.640;37.692;2023-10-08T00:49:52;1.50;;;1.40;;
61483;SDS011;47349;55.640;37.692;2023-10-08T00:52:38;3.13;;;1.40;;
61483;SDS011;47349;55.640;37.692;2023-10-08T00:55:08;1.60;;;1.50;;
61483;SDS011;47349;55.640;37.692;2023-10-08T00:57:38;1.95;;;1.70;;
61483;SDS011;47349;55.640;37.692;2023-10-08T01:00:09;1.50;;;1.40;;
61483;SDS011;47349;55.640;37.692;2023-10-08T01:02:43;7.25;;;1.50;;
61483;SDS011;47349;55.640;37.692;2023-10-08T01:05:16;1.77;;;1.38;;
61483;SDS011;47349;55.640;37.692;2023-10-08T01:07:52;2.47;;;1.45;;
61483;SDS011;47349;55.640;37.692;2023-10-08T01:10:23;1.55;;;1.45;;
61483;SDS011;47349;55.640;37.692;2023-10-08T01:12:51;1.42;;;1.40;;
61483;SDS011;47349;55.640;37.692;2023-10-08T01:15:32;1.50;;;1.40;;
61483;SDS011;47349;55.640;37.692;2023-10-08T01:18:03;1.50;;;1.40;;
61483;SDS011;47349;55.640;37.692;2023-10-08T01:20:33;1.40;;;1.30;;
61483;SDS011;47349;55.640;37.692;2023-10-08T01:23:05;1.48;;;1.40;;
61483;SDS011;47349;55.640;37.692;2023-10-08T01:25:37;4.82;;;1.65;;
61483;SDS011;47349;55.640;37.692;2023-10-08T01:28:09;1.50;;;1.40;;
61483;SDS011;47349;55.640;37.692;2023-10-08T01:30:50;1.40;;;1.30;;
61483;SDS011;47349;55.640;37.692;2023-10-08T01:33:20;3.15;;;1.67;;
61483;SDS011;47349;55.640;37.692;2023-10-08T01:35:56;1.67;;;1.58;;
61483;SDS011;47349;55.640;37.692;2023-10-08T01:38:31;1.67;;;1.58;;
61483;SDS011;47349;55.640;37.692;2023-10-08T01:41:02;1.60;;;1.50;;
61483;SDS011;47349;55.640;37.692;2023-10-08T01:43:32;1.90;;;1.80;;
61483;SDS011;47349;55.640;37.692;2023-10-08T01:46:02;1.65;;;1.55;;
61483;SDS011;47349;55.640;37.692;2023-10-08T01:48:30;1.50;;;1.40;;
61483;SDS011;47349;55.640;37.692;2023-10-08T01:51:05;3.83;;;1.40;;
61483;SDS011;47349;55.640;37.692;2023-10-08T01:53:38;1.60;;;1.50;;
61483;SDS011;47349;55.640;37.692;2023-10-08T01:56:06;2.85;;;1.90;;
61483;SDS011;47349;55.640;37.692;2023-10-08T01:58:34;1.50;;;1.40;;
61483;SDS011;47349;55.640;37.692;2023-10-08T02:01:03;1.58;;;1.48;;
61483;SDS011;47349;55.640;37.692;2023-10-08T02:03:39;1.67;;;1.58;;
61483;SDS011;47349;55.640;37.692;2023-10-08T02:06:09;2.85;;;1.88;;
61483;SDS011;47349;55.640;37.692;2023-10-08T02:08:37;2.85;;;1.40;;
61483;SDS011;47349;55.640;37.692;2023-10-08T02:11:04;1.70;;;1.60;;
61483;SDS011;47349;55.640;37.692;2023-10-08T02:13:32;1.60;;;1.50;;
61483;SDS011;47349;55.640;37.692;2023-10-08T02:16:01;1.70;;;1.60;;
61483;SDS011;47349;55.640;37.692;2023-10-08T02:18:29;1.70;;;1.60;;
61483;SDS011;47349;55.640;37.692;2023-10-08T02:21:15;5.18;;;1.80;;
61483;SDS011;47349;55.640;37.692;2023-10-08T02:23:43;1.60;;;1.50;;
61483;SDS011;47349;55.640;37.692;2023-10-08T02:26:10;1.50;;;1.50;;
61483;SDS011;47349;55.640;37.692;2023-10-08T02:28:37;1.70;;;1.60;;
61483;SDS011;47349;55.640;37.692;2023-10-08T02:31:05;1.60;;;1.50;;
61483;SDS011;47349;55.640;37.692;2023-10-08T02:33:33;1.40;;;1.40;;
61483;SDS011;47349;55.640;37.692;2023-10-08T02:36:02;2.58;;;1.60;;
61483;SDS011;47349;55.640;37.692;2023-10-08T02:38:36;2.17;;;1.85;;
61483;SDS011;47349;55.640;37.692;2023-10-08T02:41:06;1.98;;;1.88;;
61483;SDS011;47349;55.640;37.692;2023-10-08T02:43:34;2.20;;;1.90;;
61483;SDS011;47349;55.640;37.692;2023-10-08T02:46:03;1.67;;;1.58;;
61483;SDS011;47349;55.640;37.692;2023-10-08T02:48:37;1.60;;;1.50;;
61483;SDS011;47349;55.640;37.692;2023-10-08T02:51:04;1.70;;;1.60;;
61483;SDS011;47349;55.640;37.692;2023-10-08T02:53:43;2.45;;;1.65;;
61483;SDS011;47349;55.640;37.692;2023-10-08T02:56:11;2.33;;;1.70;;
61483;SDS011;47349;55.640;37.692;2023-10-08T02:58:40;2.28;;;1.80;;
61483;SDS011;47349;55.640;37.692;2023-10-08T03:01:08;1.75;;;1.65;;
61483;SDS011;47349;55.640;37.692;2023-10-08T03:03:40;2.47;;;1.60;;
61483;SDS011;47349;55.640;37.692;2023-10-08T03:06:19;2.80;;;2.00;;
61483;SDS011;47349;55.640;37.692;2023-10-08T03:08:46;1.70;;;1.60;;
61483;SDS011;47349;55.640;37.692;2023-10-08T03:11:14;1.80;;;1.63;;
61483;SDS011;47349;55.640;37.692;2023-10-08T03:13:45;1.90;;;1.80;;
61483;SDS011;47349;55.640;37.692;2023-10-08T03:16:19;3.25;;;2.40;;
61483;SDS011;47349;55.640;37.692;2023-10-08T03:18:55;1.80;;;1.70;;
61483;SDS011;47349;55.640;37.692;2023-10-08T03:21:24;1.77;;;1.60;;
61483;SDS011;47349;55.640;37.692;2023-10-08T03:24:11;1.77;;;1.65;;
61483;SDS011;47349;55.640;37.692;2023-10-08T03:26:57;1.70;;;1.60;;
61483;SDS011;47349;55.640;37.692;2023-10-08T03:29:34;2.08;;;1.98;;
61483;SDS011;47349;55.640;37.692;2023-10-08T03:32:14;4.72;;;1.95;;
61483;SDS011;47349;55.640;37.692;2023-10-08T03:34:49;1.85;;;1.70;;
61483;SDS011;47349;55.640;37.692;2023-10-08T03:37:21;1.98;;;1.73;;
61483;SDS011;47349;55.640;37.692;2023-10-08T03:39:56;2.08;;;1.92;;
61483;SDS011;47349;55.640;37.692;2023-10-08T03:42:42;1.80;;;1.70;;
61483;SDS011;47349;55.640;37.692;2023-10-08T03:45:16;3.25;;;1.83;;
61483;SDS011;47349;55.640;37.692;2023-10-08T03:47:50;2.00;;;1.88;;
61483;SDS011;47349;55.640;37.692;2023-10-08T03:50:34;1.70;;;1.58;;
61483;SDS011;47349;55.640;37.692;2023-10-08T03:53:11;2.05;;;1.85;;
61483;SDS011;47349;55.640;37.692;2023-10-08T03:55:39;2.72;;;1.95;;
61483;SDS011;47349;55.640;37.692;2023-10-08T03:58:09;2.63;;;2.00;;
61483;SDS011;47349;55.640;37.692;2023-10-08T04:00:45;1.73;;;1.63;;
61483;SDS011;47349;55.640;37.692;2023-10-08T04:03:13;2.00;;;1.80;;
61483;SDS011;47349;55.640;37.692;2023-10-08T04:05:50;1.95;;;1.70;;
61483;SDS011;47349;55.640;37.692;2023-10-08T04:08:42;2.17;;;1.75;;
61483;SDS011;47349;55.640;37.692;2023-10-08T04:11:10;2.55;;;1.73;;
61483;SDS011;47349;55.640;37.692;2023-10-08T04:13:57;2.03;;;1.92;;
61483;SDS011;47349;55.640;37.692;2023-10-08T04:16:31;2.55;;;1.80;;
61483;SDS011;47349;55.640;37.692;2023-10-08T04:19:04;1.73;;;1.63;;
61483;SDS011;47349;55.640;37.692;2023-10-08T04:21:31;2.10;;;1.90;;
61483;SDS011;47349;55.640;37.692;2023-10-08T04:24:01;2.30;;;1.60;;
61483;SDS011;47349;55.640;37.692;2023-10-08T04:26:35;3.45;;;1.70;;
61483;SDS011;47349;55.640;37.692;2023-10-08T04:32:37;6.05;;;1.90;;
61483;SDS011;47349;55.640;37.692;2023-10-08T04:35:14;2.08;;;1.88;;
61483;SDS011;47349;55.640;37.692;2023-10-08T04:37:45;1.98;;;1.80;;
61483;SDS011;47349;55.640;37.692;2023-10-08T04:40:54;2.03;;;1.92;;
61483;SDS011;47349;55.640;37.692;2023-10-08T04:43:24;2.13;;;1.92;;
61483;SDS011;47349;55.640;37.692;2023-10-08T04:45:53;1.98;;;1.75;;
61483;SDS011;47349;55.640;37.692;2023-10-08T04:48:24;1.90;;;1.80;;
61483;SDS011;47349;55.640;37.692;2023-10-08T04:50:54;1.90;;;1.70;;
61483;SDS011;47349;55.640;37.692;2023-10-08T04:53:27;2.45;;;1.63;;
61483;SDS011;47349;55.640;37.692;2023-10-08T04:56:17;1.83;;;1.73;;
61483;SDS011;47349;55.640;37.692;2023-10-08T04:58:49;2.17;;;1.60;;
61483;SDS011;47349;55.640;37.692;2023-10-08T05:01:18;2.40;;;1.85;;
61483;SDS011;47349;55.640;37.692;2023-10-08T05:03:59;2.45;;;1.77;;
61483;SDS011;47349;55.640;37.692;2023-10-08T05:06:28;2.22;;;1.80;;
61483;SDS011;47349;55.640;37.692;2023-10-08T05:09:07;2.63;;;1.83;;
61483;SDS011;47349;55.640;37.692;2023-10-08T05:11:38;2.35;;;1.75;;
61483;SDS011;47349;55.640;37.692;2023-10-08T05:14:20;1.60;;;1.50;;
61483;SDS011;47349;55.640;37.692;2023-10-08T05:17:18;5.50;;;2.13;;
61483;SDS011;47349;55.640;37.692;2023-10-08T05:22:34;2.00;;;1.90;;
61483;SDS011;47349;55.640;37.692;2023-10-08T05:29:32;2.33;;;2.13;;
61483;SDS011;47349;55.640;37.692;2023-10-08T05:32:23;2.88;;;1.90;;
61483;SDS011;47349;55.640;37.692;2023-10-08T05:35:09;2.00;;;1.90;;
61483;SDS011;47349;55.640;37.692;2023-10-08T05:37:57;2.10;;;1.90;;
61483;SDS011;47349;55.640;37.692;2023-10-08T05:40:41;1.73;;;1.63;;
61483;SDS011;47349;55.640;37.692;2023-10-08T05:43:43;3.28;;;2.10;;
61483;SDS011;47349;55.640;37.692;2023-10-08T05:46:21;3.15;;;1.80;;
61483;SDS011;47349;55.640;37.692;2023-10-08T05:48:50;4.65;;;2.00;;
61483;SDS011;47349;55.640;37.692;2023-10-08T05:51:43;2.92;;;1.95;;
61483;SDS011;47349;55.640;37.692;2023-10-08T05:54:22;3.22;;;1.80;;
61483;SDS011;47349;55.640;37.692;2023-10-08T05:57:01;2.10;;;1.90;;
61483;SDS011;47349;55.640;37.692;2023-10-08T06:00:08;2.35;;;2.15;;
61483;SDS011;47349;55.640;37.692;2023-10-08T06:02:36;2.20;;;2.00;;
61483;SDS011;47349;55.640;37.692;2023-10-08T06:05:30;1.90;;;1.70;;
61483;SDS011;47349;55.640;37.692;2023-10-08T06:08:10;3.03;;;1.95;;
61483;SDS011;47349;55.640;37.692;2023-10-08T06:10:45;2.70;;;2.10;;
61483;SDS011;47349;55.640;37.692;2023-10-08T06:15:57;7.20;;;2.00;;
61483;SDS011;47349;55.640;37.692;2023-10-08T06:18:25;3.30;;;1.95;;
61483;SDS011;47349;55.640;37.692;2023-10-08T06:21:05;2.00;;;1.90;;
61483;SDS011;47349;55.640;37.692;2023-10-08T06:23:39;2.03;;;1.90;;
61483;SDS011;47349;55.640;37.692;2023-10-08T06:26:12;4.70;;;2.13;;
61483;SDS011;47349;55.640;37.692;2023-10-08T06:28:41;2.03;;;1.83;;
61483;SDS011;47349;55.640;37.692;2023-10-08T06:31:10;1.85;;;1.75;;
61483;SDS011;47349;55.640;37.692;2023-10-08T06:33:52;2.10;;;2.00;;
61483;SDS011;47349;55.640;37.692;2023-10-08T06:36:28;2.67;;;1.77;;
61483;SDS011;47349;55.640;37.692;2023-10-08T06:38:57;1.80;;;1.70;;
61483;SDS011;47349;55.640;37.692;2023-10-08T06:41:27;3.30;;;1.70;;
61483;SDS011;47349;55.640;37.692;2023-10-08T06:44:18;1.92;;;1.80;;
61483;SDS011;47349;55.640;37.692;2023-10-08T06:46:46;2.05;;;1.90;;
61483;SDS011;47349;55.640;37.692;2023-10-08T06:49:16;2.28;;;2.08;;
61483;SDS011;47349;55.640;37.692;2023-10-08T06:51:46;2.33;;;2.13;;
61483;SDS011;47349;55.640;37.692;2023-10-08T06:54:18;1.90;;;1.80;;
61483;SDS011;47349;55.640;37.692;2023-10-08T06:56:49;2.13;;;1.67;;
61483;SDS011;47349;55.640;37.692;2023-10-08T06:59:25;2.03;;;1.92;;
61483;SDS011;47349;55.640;37.692;2023-10-08T07:02:00;1.80;;;1.70;;
61483;SDS011;47349;55.640;37.692;2023-10-08T07:04:44;2.30;;;2.08;;
61483;SDS011;47349;55.640;37.692;2023-10-08T07:07:17;2.05;;;1.80;;
61483;SDS011;47349;55.640;37.692;2023-10-08T07:09:46;5.40;;;1.90;;
61483;SDS011;47349;55.640;37.692;2023-10-08T07:12:21;1.80;;;1.70;;
61483;SDS011;47349;55.640;37.692;2023-10-08T07:14:53;1.90;;;1.80;;
61483;SDS011;47349;55.640;37.692;2023-10-08T07:17:22;4.25;;;2.30;;
61483;SDS011;47349;55.640;37.692;2023-10-08T07:20:13;2.00;;;1.90;;
61483;SDS011;47349;55.640;37.692;2023-10-08T07:22:58;1.90;;;1.80;;
61483;SDS011;47349;55.640;37.692;2023-10-08T07:25:27;10.95;;;2.03;;
61483;SDS011;47349;55.640;37.692;2023-10-08T07:30:41;1.90;;;1.80;;
61483;SDS011;47349;55.640;37.692;2023-10-08T07:33:15;1.83;;;1.73;;
61483;SDS011;47349;55.640;37.692;2023-10-08T07:35:55;3.28;;;1.80;;
61483;SDS011;47349;55.640;37.692;2023-10-08T07:38:56;2.67;;;2.00;;
61483;SDS011;47349;55.640;37.692;2023-10-08T07:44:29;4.28;;;1.60;;
61483;SDS011;47349;55.640;37.692;2023-10-08T07:50:10;4.75;;;2.00;;
61483;SDS011;47349;55.640;37.692;2023-10-08T07:52:43;2.85;;;1.90;;
61483;SDS011;47349;55.640;37.692;2023-10-08T07:55:18;3.72;;;2.20;;
61483;SDS011;47349;55.640;37.692;2023-10-08T07:57:46;2.15;;;2.00;;
61483;SDS011;47349;55.640;37.692;2023-10-08T08:00:28;3.22;;;2.10;;
61483;SDS011;47349;55.640;37.692;2023-10-08T08:03:15;2.88;;;2.00;;
61483;SDS011;47349;55.640;37.692;2023-10-08T08:05:48;3.78;;;1.75;;
61483;SDS011;47349;55.640;37.692;2023-10-08T08:08:31;2.20;;;2.00;;
61483;SDS011;47349;55.640;37.692;2023-10-08T08:11:06;1.83;;;1.67;;
61483;SDS011;47349;55.640;37.692;2023-10-08T08:16:28;3.53;;;2.25;;
61483;SDS011;47349;55.640;37.692;2023-10-08T08:18:58;2.63;;;2.08;;
61483;SDS011;47349;55.640;37.692;2023-10-08T08:21:26;2.10;;;1.90;;
61483;SDS011;47349;55.640;37.692;2023-10-08T08:23:57;2.10;;;1.90;;
61483;SDS011;47349;55.640;37.692;2023-10-08T08:26:45;2.33;;;2.13;;
61483;SDS011;47349;55.640;37.692;2023-10-08T08:29:29;1.90;;;1.80;;
61483;SDS011;47349;55.640;37.692;2023-10-08T08:31:56;2.67;;;2.08;;
61483;SDS011;47349;55.640;37.692;2023-10-08T08:34:25;2.00;;;1.90;;
61483;SDS011;47349;55.640;37.692;2023-10-08T08:36:55;2.95;;;2.20;;
61483;SDS011;47349;55.640;37.692;2023-10-08T08:39:26;2.72;;;2.00;;
61483;SDS011;47349;55.640;37.692;2023-10-08T08:41:59;2.67;;;1.90;;
61483;SDS011;47349;55.640;37.692;2023-10-08T08:44:28;2.17;;;2.03;;
61483;SDS011;47349;55.640;37.692;2023-10-08T08:46:57;2.13;;;1.70;;
61483;SDS011;47349;55.640;37.692;2023-10-08T08:49:56;2.58;;;1.83;;
61483;SDS011;47349;55.640;37.692;2023-10-08T08:52:47;2.63;;;2.00;;
61483;SDS011;47349;55.640;37.692;2023-10-08T08:55:18;2.00;;;1.90;;
61483;SDS011;47349;55.640;37.692;2023-10-08T08:57:53;4.93;;;1.77;;
61483;SDS011;47349;55.640;37.692;2023-10-08T09:00:23;2.63;;;2.42;;
61483;SDS011;47349;55.640;37.692;2023-10-08T09:03:01;2.13;;;1.90;;
61483;SDS011;47349;55.640;37.692;2023-10-08T09:06:05;3.35;;;2.10;;
61483;SDS011;47349;55.640;37.692;2023-10-08T09:08:40;2.22;;;2.03;;
61483;SDS011;47349;55.640;37.692;2023-10-08T09:11:43;2.20;;;2.10;;
61483;SDS011;47349;55.640;37.692;2023-10-08T09:14:16;3.85;;;1.80;;
61483;SDS011;47349;55.640;37.692;2023-10-08T09:16:49;3.53;;;2.20;;
61483;SDS011;47349;55.640;37.692;2023-10-08T09:19:20;2.47;;;2.28;;
61483;SDS011;47349;55.640;37.692;2023-10-08T09:22:00;4.25;;;2.47;;
61483;SDS011;47349;55.640;37.692;2023-10-08T09:24:43;2.97;;;2.40;;
61483;SDS011;47349;55.640;37.692;2023-10-08T09:27:42;2.13;;;1.80;;
61483;SDS011;47349;55.640;37.692;2023-10-08T09:30:24;5.93;;;2.33;;
61483;SDS011;47349;55.640;37.692;2023-10-08T09:36:55;2.35;;;1.77;;
61483;SDS011;47349;55.640;37.692;2023-10-08T09:40:09;1.98;;;1.88;;
61483;SDS011;47349;55.640;37.692;2023-10-08T09:43:22;1.70;;;1.60;;
61483;SDS011;47349;55.640;37.692;2023-10-08T09:49:53;1.98;;;1.80;;
61483;SDS011;47349;55.640;37.692;2023-10-08T09:53:36;2.85;;;1.90;;
61483;SDS011;47349;55.640;37.692;2023-10-08T09:56:31;1.98;;;1.80;;
61483;SDS011;47349;55.640;37.692;2023-10-08T09:59:16;2.30;;;1.70;;
61483;SDS011;47349;55.640;37.692;2023-10-08T10:01:55;2.38;;;2.17;;
61483;SDS011;47349;55.640;37.692;2023-10-08T10:04:50;2.10;;;1.90;;
61483;SDS011;47349;55.640;37.692;2023-10-08T10:07:29;3.15;;;2.30;;
61483;SDS011;47349;55.640;37.692;2023-10-08T10:09:58;2.47;;;2.20;;
61483;SDS011;47349;55.640;37.692;2023-10-08T10:12:36;3.28;;;2.28;;
61483;SDS011;47349;55.640;37.692;2023-10-08T10:15:09;2.63;;;2.15;;
61483;SDS011;47349;55.640;37.692;2023-10-08T10:18:44;2.42;;;2.08;;
61483;SDS011;47349;55.640;37.692;2023-10-08T10:23:49;5.25;;;1.92;;
61483;SDS011;47349;55.640;37.692;2023-10-08T10:26:28;2.40;;;2.20;;
61483;SDS011;47349;55.640;37.692;2023-10-08T10:29:20;6.25;;;2.33;;
61483;SDS011;47349;55.640;37.692;2023-10-08T10:31:59;2.00;;;1.90;;
61483;SDS011;47349;55.640;37.692;2023-10-08T10:34:37;1.73;;;1.63;;
61483;SDS011;47349;55.640;37.692;2023-10-08T10:37:22;3.13;;;2.00;;
61483;SDS011;47349;55.640;37.692;2023-10-08T10:39:57;2.13;;;1.92;;
61483;SDS011;47349;55.640;37.692;2023-10-08T10:42:36;3.38;;;2.15;;
61483;SDS011;47349;55.640;37.692;2023-10-08T10:45:16;2.40;;;2.20;;
61483;SDS011;47349;55.640;37.692;2023-10-08T10:48:05;4.07;;;2.20;;
61483;SDS011;47349;55.640;37.692;2023-10-08T10:50:52;2.85;;;2.65;;
61483;SDS011;47349;55.640;37.692;2023-10-08T10:53:44;2.92;;;2.47;;
61483;SDS011;47349;55.640;37.692;2023-10-08T10:56:49;2.30;;;2.10;;
61483;SDS011;47349;55.640;37.692;2023-10-08T10:59:49;2.35;;;2.22;;
61483;SDS011;47349;55.640;37.692;2023-10-08T11:02:44;2.10;;;2.00;;
61483;SDS011;47349;55.640;37.692;2023-10-08T11:05:19;4.07;;;2.40;;
61483;SDS011;47349;55.640;37.692;2023-10-08T11:07:59;2.40;;;2.20;;
61483;SDS011;47349;55.640;37.692;2023-10-08T11:10:38;2.10;;;2.00;;
61483;SDS011;47349;55.640;37.692;2023-10-08T11:13:13;2.55;;;2.33;;
61483;SDS011;47349;55.640;37.692;2023-10-08T11:15:50;3.95;;;2.30;;
61483;SDS011;47349;55.640;37.692;2023-10-08T11:18:28;4.32;;;2.47;;
61483;SDS011;47349;55.640;37.692;2023-10-08T11:21:07;2.25;;;2.15;;
61483;SDS011;47349;55.640;37.692;2023-10-08T11:24:26;2.67;;;2.30;;
61483;SDS011;47349;55.640;37.692;2023-10-08T11:27:07;3.17;;;2.95;;
61483;SDS011;47349;55.640;37.692;2023-10-08T11:29:57;2.50;;;2.28;;
61483;SDS011;47349;55.640;37.692;2023-10-08T11:32:33;4.05;;;2.63;;
61483;SDS011;47349;55.640;37.692;2023-10-08T11:35:03;2.53;;;2.42;;
61483;SDS011;47349;55.640;37.692;2023-10-08T11:37:48;2.42;;;2.33;;
61483;SDS011;47349;55.640;37.692;2023-10-08T11:40:26;2.33;;;2.13;;
61483;SDS011;47349;55.640;37.692;2023-10-08T11:43:17;2.50;;;2.30;;
61483;SDS011;47349;55.640;37.692;2023-10-08T11:45:46;2.70;;;2.50;;
61483;SDS011;47349;55.640;37.692;2023-10-08T11:48:18;3.03;;;2.83;;
61483;SDS011;47349;55.640;37.692;2023-10-08T11:50:59;2.88;;;2.60;;
61483;SDS011;47349;55.640;37.692;2023-10-08T11:53:40;7.38;;;4.63;;
61483;SDS011;47349;55.640;37.692;2023-10-08T11:56:17;3.47;;;2.63;;
61483;SDS011;47349;55.640;37.692;2023-10-08T11:58:51;3.00;;;2.60;;
61483;SDS011;47349;55.640;37.692;2023-10-08T12:01:25;2.53;;;2.33;;
61483;SDS011;47349;55.640;37.692;2023-10-08T12:04:00;4.20;;;2.67;;
61483;SDS011;47349;55.640;37.692;2023-10-08T12:06:29;2.10;;;2.00;;
61483;SDS011;47349;55.640;37.692;2023-10-08T12:09:05;2.65;;;2.45;;
61483;SDS011;47349;55.640;37.692;2023-10-08T12:11:46;3.67;;;2.35;;
61483;SDS011;47349;55.640;37.692;2023-10-08T12:14:22;3.08;;;2.50;;
61483;SDS011;47349;55.640;37.692;2023-10-08T12:16:58;2.95;;;2.65;;
61483;SDS011;47349;55.640;37.692;2023-10-08T12:19:32;2.58;;;2.38;;
61483;SDS011;47349;55.640;37.692;2023-10-08T12:22:05;2.60;;;2.40;;
61483;SDS011;47349;55.640;37.692;2023-10-08T12:24:43;2.63;;;2.35;;
61483;SDS011;47349;55.640;37.692;2023-10-08T12:27:16;2.58;;;2.38;;
61483;SDS011;47349;55.640;37.692;2023-10-08T12:29:45;2.30;;;2.10;;
61483;SDS011;47349;55.640;37.692;2023-10-08T12:32:17;2.75;;;2.47;;
61483;SDS011;47349;55.640;37.692;2023-10-08T12:34:50;2.50;;;2.30;;
61483;SDS011;47349;55.640;37.692;2023-10-08T12:37:26;2.53;;;2.33;;
61483;SDS011;47349;55.640;37.692;2023-10-08T12:39:54;2.50;;;2.30;;
61483;SDS011;47349;55.640;37.692;2023-10-08T12:42:40;2.20;;;2.00;;
61483;SDS011;47349;55.640;37.692;2023-10-08T12:45:20;2.30;;;2.20;;
61483;SDS011;47349;55.640;37.692;2023-10-08T12:47:55;5.97;;;2.90;;
61483;SDS011;47349;55.640;37.692;2023-10-08T12:50:28;2.53;;;2.33;;
61483;SDS011;47349;55.640;37.692;2023-10-08T12:53:32;3.05;;;2.75;;
61483;SDS011;47349;55.640;37.692;2023-10-08T12:56:17;2.47;;;2.30;;
61483;SDS011;47349;55.640;37.692;2023-10-08T12:59:07;2.80;;;2.60;;
61483;SDS011;47349;55.640;37.692;2023-10-08T13:01:48;2.78;;;2.50;;
61483;SDS011;47349;55.640;37.692;2023-10-08T13:04:38;2.45;;;2.30;;
61483;SDS011;47349;55.640;37.692;2023-10-08T13:07:09;2.80;;;2.60;;
61483;SDS011;47349;55.640;37.692;2023-10-08T13:09:54;2.28;;;2.10;;
61483;SDS011;47349;55.640;37.692;2023-10-08T13:12:30;2.70;;;2.50;;
61483;SDS011;47349;55.640;37.692;2023-10-08T13:15:02;3.38;;;2.40;;
61483;SDS011;47349;55.640;37.692;2023-10-08T13:17:36;2.60;;;2.40;;
61483;SDS011;47349;55.640;37.692;2023-10-08T13:20:09;2.30;;;2.20;;
61483;SDS011;47349;55.640;37.692;2023-10-08T13:22:42;2.63;;;2.42;;
61483;SDS011;47349;55.640;37.692;2023-10-08T13:27:49;3.13;;;2.65;;
61483;SDS011;47349;55.640;37.692;2023-10-08T13:30:19;2.65;;;2.45;;
61483;SDS011;47349;55.640;37.692;2023-10-08T13:33:11;2.60;;;2.38;;
61483;SDS011;47349;55.640;37.692;2023-10-08T13:35:46;3.90;;;2.55;;
61483;SDS011;47349;55.640;37.692;2023-10-08T13:38:44;3.83;;;2.22;;
61483;SDS011;47349;55.640;37.692;2023-10-08T13:41:29;2.45;;;2.25;;
61483;SDS011;47349;55.640;37.692;2023-10-08T13:44:08;2.60;;;2.40;;
61483;SDS011;47349;55.640;37.692;2023-10-08T13:46:41;3.05;;;2.40;;
61483;SDS011;47349;55.640;37.692;2023-10-08T13:49:35;2.90;;;2.70;;
61483;SDS011;47349;55.640;37.692;2023-10-08T13:52:10;3.22;;;2.90;;
61483;SDS011;47349;55.640;37.692;2023-10-08T13:54:48;2.88;;;2.67;;
61483;SDS011;47349;55.640;37.692;2023-10-08T13:57:49;3.15;;;2.85;;
61483;SDS011;47349;55.640;37.692;2023-10-08T14:00:30;2.38;;;2.20;;
61483;SDS011;47349;55.640;37.692;2023-10-08T14:03:18;3.38;;;2.80;;
61483;SDS011;47349;55.640;37.692;2023-10-08T14:06:06;3.25;;;2.40;;
61483;SDS011;47349;55.640;37.692;2023-10-08T14:09:01;3.20;;;2.63;;
61483;SDS011;47349;55.640;37.692;2023-10-08T14:11:44;2.90;;;2.70;;
61483;SDS011;47349;55.640;37.692;2023-10-08T14:14:14;2.80;;;2.60;;
61483;SDS011;47349;55.640;37.692;2023-10-08T14:16:48;3.17;;;2.70;;
61483;SDS011;47349;55.640;37.692;2023-10-08T14:19:27;2.58;;;2.47;;
61483;SDS011;47349;55.640;37.692;2023-10-08T14:22:10;3.60;;;3.00;;
61483;SDS011;47349;55.640;37.692;2023-10-08T14:25:13;2.83;;;2.60;;
61483;SDS011;47349;55.640;37.692;2023-10-08T14:27:58;2.70;;;2.50;;
61483;SDS011;47349;55.640;37.692;2023-10-08T14:30:45;3.35;;;2.83;;
61483;SDS011;47349;55.640;37.692;2023-10-08T14:33:36;2.60;;;2.40;;
61483;SDS011;47349;55.640;37.692;2023-10-08T14:36:29;3.13;;;2.83;;
61483;SDS011;47349;55.640;37.692;2023-10-08T14:39:36;3.08;;;2.30;;
61483;SDS011;47349;55.640;37.692;2023-10-08T14:42:23;2.78;;;2.58;;
61483;SDS011;47349;55.640;37.692;2023-10-08T14:45:24;3.40;;;3.10;;
61483;SDS011;47349;55.640;37.692;2023-10-08T14:48:01;3.58;;;2.88;;
61483;SDS011;47349;55.640;37.692;2023-10-08T14:50:39;4.75;;;4.15;;
61483;SDS011;47349;55.640;37.692;2023-10-08T14:53:15;2.88;;;2.60;;
61483;SDS011;47349;55.640;37.692;2023-10-08T14:55:44;3.83;;;2.60;;
61483;SDS011;47349;55.640;37.692;2023-10-08T14:58:21;3.10;;;2.90;;
61483;SDS011;47349;55.640;37.692;2023-10-08T15:00:54;2.78;;;2.55;;
61483;SDS011;47349;55.640;37.692;2023-10-08T15:03:41;2.53;;;2.38;;
61483;SDS011;47349;55.640;37.692;2023-10-08T15:06:21;2.65;;;2.42;;
61483;SDS011;47349;55.640;37.692;2023-10-08T15:09:06;3.13;;;2.83;;
61483;SDS011;47349;55.640;37.692;2023-10-08T15:11:57;3.28;;;2.75;;
61483;SDS011;47349;55.640;37.692;2023-10-08T15:14:43;4.28;;;3.30;;
61483;SDS011;47349;55.640;37.692;2023-10-08T15:17:33;3.47;;;2.90;;
61483;SDS011;47349;55.640;37.692;2023-10-08T15:20:04;3.60;;;3.00;;
61483;SDS011;47349;55.640;37.692;2023-10-08T15:22:48;2.80;;;2.60;;
61483;SDS011;47349;55.640;37.692;2023-10-08T15:25:29;2.70;;;2.50;;
61483;SDS011;47349;55.640;37.692;2023-10-08T15:28:00;2.78;;;2.60;;
61483;SDS011;47349;55.640;37.692;2023-10-08T15:30:39;5.20;;;3.22;;
61483;SDS011;47349;55.640;37.692;2023-10-08T15:33:30;2.95;;;2.67;;
61483;SDS011;47349;55.640;37.692;2023-10-08T15:36:07;2.65;;;2.45;;
61483;SDS011;47349;55.640;37.692;2023-10-08T15:38:40;3.25;;;2.53;;
61483;SDS011;47349;55.640;37.692;2023-10-08T15:41:15;3.42;;;2.92;;
61483;SDS011;47349;55.640;37.692;2023-10-08T15:43:50;2.45;;;2.30;;
61483;SDS011;47349;55.640;37.692;2023-10-08T15:46:27;3.17;;;2.88;;
61483;SDS011;47349;55.640;37.692;2023-10-08T15:49:15;2.60;;;2.40;;
61483;SDS011;47349;55.640;37.692;2023-10-08T15:52:00;2.50;;;2.30;;
61483;SDS011;47349;55.640;37.692;2023-10-08T15:54:48;2.40;;;2.20;;
61483;SDS011;47349;55.640;37.692;2023-10-08T15:57:25;2.85;;;2.65;;
61483;SDS011;47349;55.640;37.692;2023-10-08T16:00:05;2.50;;;2.30;;
61483;SDS011;47349;55.640;37.692;2023-10-08T16:02:54;2.55;;;2.35;;
61483;SDS011;47349;55.640;37.692;2023-10-08T16:05:37;2.92;;;2.72;;
61483;SDS011;47349;55.640;37.692;2023-10-08T16:08:16;3.13;;;2.58;;
61483;SDS011;47349;55.640;37.692;2023-10-08T16:10:49;2.70;;;2.50;;
61483;SDS011;47349;55.640;37.692;2023-10-08T16:13:33;2.40;;;2.30;;
61483;SDS011;47349;55.640;37.692;2023-10-08T16:16:20;2.25;;;2.05;;